^^
Datos históricos de la estación: Murcia-Puente Tocinos
Diario Informe para Mayo 28, 2019 Unidades:  Ingés    Métrico   Ambas
Diario Semanal Mensual Anual
  Máxima: Mínima: Promedio:
Temperatura: 82 °F 68.9 °F 74.7 °F
Punto de rocio: 68.9 °F 64.4 °F 67.1 °F
Humedad: 92% 56.6% 79%
Velocidad viento: 10.2mph 0mph 4.2mph
Racha viento: 17.3mph - -
Viento- - SE
Presión: 30.1 in 30 in -
Precipitación: 0 in    
 
 
Tabla de datos para Mayo 28, 2019
Hora Temperatura Punto de rocio Presión Viento Velocidad viento Racha viento Humedad Intensidad lluvia(por hora) Nubes
00:04 72.5 °F 68.7 °F 30 in NNE 2.9 mph 5.2 mph 88% 0 in
00:09 72.3 °F 68.7 °F 30 in North 2.9 mph 5.8 mph 88.6% 0 in
00:14 72.3 °F 68.9 °F 30 in NNE 3.1 mph 6 mph 89% 0 in
00:19 72.1 °F 68.7 °F 30 in NE 3 mph 6 mph 89% 0 in
00:24 72.1 °F 68.7 °F 30 in NNE 2.9 mph 5.8 mph 89% 0 in
00:29 72 °F 68.5 °F 30 in North 2.9 mph 6 mph 89% 0 in
00:34 72 °F 68.7 °F 30 in NNE 2.9 mph 5 mph 89.4% 0 in
00:39 72 °F 68.7 °F 30 in NNE 2.7 mph 5 mph 90% 0 in
00:44 71.8 °F 68.7 °F 30 in NNE 2 mph 5 mph 90% 0 in
00:49 71.8 °F 68.7 °F 30 in Este 2.2 mph 5 mph 90% 0 in
00:54 71.8 °F 68.7 °F 30 in Este 2.9 mph 5 mph 90% 0 in
00:59 71.6 °F 68.5 °F 30 in NE 2.6 mph 4 mph 90% 0 in
01:04 71.4 °F 68.4 °F 30 in NE 1.8 mph 2.4 mph 90% 0 in
01:09 71.4 °F 68.4 °F 30 in NE 1.4 mph 2.9 mph 90% 0 in
01:14 71.4 °F 68.4 °F 30 in Calm   3 mph 90% 0 in
01:19 71.4 °F 68.4 °F 30 in Calm   3 mph 90% 0 in
01:24 71.4 °F 68.4 °F 30 in Calm   2.9 mph 90% 0 in
01:29 71.4 °F 68.4 °F 30 in NNO 0.4 mph 3.6 mph 90% 0 in
01:34 71.4 °F 68.4 °F 30 in NNO 1.8 mph 4 mph 90% 0 in
01:39 71.4 °F 68.4 °F 30 in NNO 1.8 mph 3.5 mph 90% 0 in
01:44 71.4 °F 68.4 °F 30 in NNO 1.8 mph 3.6 mph 90% 0 in
01:49 71.4 °F 68.4 °F 30 in NNO 1.8 mph 4 mph 90% 0 in
01:54 71.4 °F 68.4 °F 30 in NO 1.8 mph 3.5 mph 90% 0 in
01:59 71.2 °F 68.2 °F 30 in NO 1.7 mph 3 mph 90% 0 in
02:04 71.2 °F 68.2 °F 30 in NO 1.4 mph 2.3 mph 90% 0 in
02:09 71.2 °F 68.4 °F 30 in NO 1.1 mph 2.3 mph 90.6% 0 in
02:14 71.2 °F 68.5 °F 30 in Calm   2.3 mph 91% 0 in
02:19 71.2 °F 68.5 °F 30 in NO 0.3 mph 2.4 mph 91% 0 in
02:24 71.2 °F 68.5 °F 30 in NO 1.4 mph 2.3 mph 91% 0 in
02:29 71.2 °F 68.5 °F 30 in NO 1.1 mph 2.3 mph 91% 0 in
02:34 71.2 °F 68.5 °F 30 in Calm   2.3 mph 91% 0 in
02:39 71.2 °F 68.5 °F 30 in Calm   2 mph 91% 0 in
02:44 71.2 °F 68.5 °F 30 in Calm   2.3 mph 91% 0 in
02:49 71.1 °F 68.4 °F 30 in Calm   2.9 mph 91% 0 in
02:54 71.1 °F 68.4 °F 30 in Calm   3 mph 91% 0 in
02:59 71.1 °F 68.4 °F 30 in NO 0.5 mph 3.5 mph 91% 0 in
03:04 71.1 °F 68.2 °F 30 in NO 1.8 mph 3 mph 91% 0 in
03:09 70.9 °F 68.2 °F 30 in NO 1.4 mph 2 mph 91.1% 0 in
03:14 70.9 °F 68.2 °F 30 in Calm     91.4% 0 in
03:19 70.7 °F 68 °F 30 in Calm   3.5 mph 91% 0 in
03:24 70.5 °F 67.8 °F 30 in Calm   3.6 mph 91% 0 in
03:29 70.5 °F 67.8 °F 30 in ENE 0.4 mph 4 mph 91% 0 in
03:34 70.3 °F 67.6 °F 30 in ENE 2 mph 3.6 mph 91% 0 in
03:39 70.3 °F 67.6 °F 30 in ENE 1.9 mph 4 mph 91% 0 in
03:44 70.2 °F 67.5 °F 30 in ENE 1.8 mph 3 mph 91% 0 in
03:49 70.2 °F 67.1 °F 30 in ENE 1.7 mph 2.9 mph 90.1% 0 in
03:54 70.2 °F 67.5 °F 30 in ENE 1.4 mph 3.6 mph 90.8% 0 in
03:59 70.3 °F 67.6 °F 30 in Sur 1.6 mph 4 mph 91% 0 in
04:04 70.3 °F 67.6 °F 30 in SSO 2 mph 4.6 mph 91% 0 in
04:09 70.5 °F 67.8 °F 30 in SSO 2.1 mph 5 mph 91% 0 in
04:14 70.5 °F 67.6 °F 30 in Sur 2.4 mph 5 mph 90.4% 0 in
04:19 70.5 °F 67.5 °F 30 in Sur 2.5 mph 5.8 mph 90% 0 in
04:24 70.5 °F 67.5 °F 30 in SSO 3.1 mph 6 mph 90% 0 in
04:29 70.5 °F 67.5 °F 30 in SSO 3.1 mph 5 mph 90% 0 in
04:34 70.5 °F 67.5 °F 30 in SSO 3.1 mph 5.2 mph 90% 0 in
04:39 70.7 °F 67.6 °F 30 in SO 3 mph 5 mph 90% 0 in
04:44 70.9 °F 67.8 °F 30 in Oeste 2.9 mph 5 mph 90% 0 in
04:49 70.9 °F 68 °F 30 in OSO 2.7 mph 4 mph 90.3% 0 in
04:54 71.1 °F 68.2 °F 30 in SO 2 mph 4.7 mph 90.7% 0 in
04:59 71.2 °F 68.4 °F 30 in SSO 2.2 mph 6.2 mph 91% 0 in
05:04 71.2 °F 68.5 °F 30 in Sur 2.9 mph 6 mph 91% 0 in
05:09 71.1 °F 68.4 °F 30 in SSE 2.9 mph 5 mph 91% 0 in
05:14 71.1 °F 68.4 °F 30 in SSO 3.1 mph 5.8 mph 91% 0 in
05:19 71.1 °F 68.4 °F 30 in Sur 3.1 mph 6 mph 91% 0 in
05:24 71.1 °F 68.4 °F 30 in Sur 3.1 mph 5 mph 91.4% 0 in
05:29 71.1 °F 68.4 °F 30 in OSO 2.9 mph 5 mph 91.4% 0 in
05:34 70.9 °F 68.2 °F 30 in OSO 2.4 mph 5 mph 91% 0 in
05:39 70.9 °F 68.2 °F 30 in SO 2.4 mph 5 mph 91% 0 in
05:44 70.9 °F 68 °F 30 in SO 2.4 mph 5.8 mph 91% 0 in
05:49 70.7 °F 67.8 °F 30 in SO 2.5 mph 6 mph 91% 0 in
05:54 70.7 °F 67.8 °F 30 in SSO 2.9 mph 6.9 mph 91% 0 in
05:59 70.5 °F 67.8 °F 30 in SSO 3.4 mph 8.1 mph 91% 0 in
06:04 70.3 °F 67.6 °F 30 in SO 4.7 mph 8 mph 91% 0 in
06:09 70.3 °F 67.6 °F 30 in SSO 4.6 mph 7.4 mph 91% 0 in
06:14 70.3 °F 67.6 °F 30 in SO 4.3 mph 7 mph 91% 0 in
06:19 70.3 °F 67.6 °F 30 in SO 4.2 mph 7 mph 91% 0 in
06:24 70.3 °F 67.6 °F 30 in OSO 4 mph 5 mph 91% 0 in
06:29 70.3 °F 67.6 °F 30 in OSO 3.5 mph 4.6 mph 91% 0 in
06:34 70.3 °F 67.6 °F 30 in SO 1.8 mph 5 mph 91% 0 in
06:39 70.2 °F 67.5 °F 30 in SO 2.1 mph 5.2 mph 91% 0 in
06:44 70.2 °F 67.5 °F 30 in OSO 2.9 mph 5.8 mph 91% 0 in
06:49 70.2 °F 67.5 °F 30 in OSO 2.9 mph 6 mph 91% 0 in
06:54 70.2 °F 67.3 °F 30 in Oeste 2.9 mph 5 mph 90.9% 0 in
06:59 70 °F 66.9 °F 30 in Oeste 2.6 mph 5 mph 90.3% 0 in
07:04 70 °F 66.9 °F 30 in Oeste 2 mph 4 mph 90% 0 in
07:09 69.8 °F 67.1 °F 30 in SO 2.1 mph 4.7 mph 90.9% 0 in
07:14 69.8 °F 67.1 °F 30 in SO 2.4 mph 5.8 mph 91% 0 in
07:19 70 °F 67.3 °F 30 in SO 2.5 mph 6.2 mph 91.4% 0 in
07:24 70 °F 67.5 °F 30 in SO 3.1 mph 6 mph 92% 0 in
07:29 70 °F 67.5 °F 30 in SO 3.3 mph 6.2 mph 92% 0 in
07:34 69.8 °F 67.5 °F 30 in SO 4 mph 6 mph 92% 0 in
07:39 69.8 °F 67.3 °F 30 in OSO 3.8 mph 5 mph 92% 0 in
07:44 69.6 °F 67.3 °F 30 in SO 3.1 mph 5.8 mph 92% 0 in
07:49 69.6 °F 67.3 °F 30 in OSO 3.1 mph 6 mph 92% 0 in
07:54 69.6 °F 67.3 °F 30 in OSO 3.1 mph 6 mph 92% 0 in
07:59 69.6 °F 67.3 °F 30 in OSO 3.1 mph 6 mph 92% 0 in
08:04 69.6 °F 67.3 °F 30 in OSO 3.1 mph 6 mph 92% 0 in
08:09 69.4 °F 66.9 °F 30 in OSO 2.8 mph 4.6 mph 92% 0 in
08:14 69.3 °F 66.7 °F 30 in Oeste 2 mph 5 mph 92% 0 in
08:19 69.3 °F 66.7 °F 30 in OSO 2.1 mph 5 mph 92% 0 in
08:24 69.1 °F 66.7 °F 30 in Oeste 2.4 mph 5 mph 92% 0 in
08:29 68.9 °F 66.6 °F 30 in Oeste 2.4 mph 5 mph 92% 0 in
08:34 69.1 °F 66.7 °F 30 in Oeste 2.4 mph 4 mph 92% 0 in
08:39 69.1 °F 66.7 °F 30 in Oeste 2.2 mph 4.3 mph 91.9% 0 in
08:44 69.3 °F 66.6 °F 30 in Oeste 1.8 mph 5 mph 91% 0 in
08:49 69.3 °F 66.6 °F 30 in Oeste 2.1 mph 5 mph 91% 0 in
08:54 69.4 °F 66.6 °F 30 in ONO 2.9 mph 5 mph 91% 0 in
08:59 69.4 °F 66.7 °F 30 in ONO 2.6 mph 5 mph 91% 0 in
09:04 69.6 °F 66.7 °F 30 in ONO 2 mph 5.8 mph 90.4% 0 in
09:09 69.6 °F 66.2 °F 30 in ONO 2.4 mph 6 mph 89.2% 0 in
09:14 69.6 °F 66 °F 30 in ONO 3.6 mph 6.2 mph 88.5% 0 in
09:19 69.4 °F 65.7 °F 30.1 in Oeste 3.7 mph 6.9 mph 87.2% 0 in
09:24 69.6 °F 65.3 °F 30.1 in Oeste 4 mph 7 mph 86.2% 0 in
09:29 70 °F 65.5 °F 30.1 in Oeste 3.9 mph 6 mph 86% 0 in
09:34 70.2 °F 65.7 °F 30.1 in Oeste 3.6 mph 6 mph 85.7% 0 in
09:39 70.3 °F 65.7 °F 30.1 in Oeste 3.5 mph 6 mph 85% 0 in
09:44 70.5 °F 65.7 °F 30.1 in ONO 3.1 mph 6 mph 84.5% 0 in
09:49 70.9 °F 65.8 °F 30.1 in ONO 3.1 mph 6 mph 84% 0 in
09:54 71.2 °F 66.2 °F 30.1 in Oeste 3.1 mph 5 mph 84% 0 in
09:59 71.8 °F 66.4 °F 30.1 in ONO 2.7 mph 5 mph 82.9% 0 in
10:04 72.1 °F 66.4 °F 30.1 in Oeste 1.8 mph 4 mph 81.6% 0 in
10:09 72.7 °F 66.4 °F 30.1 in Oeste 1.9 mph 4 mph 80.5% 0 in
10:14 73 °F 66.2 °F 30.1 in OSO 2 mph 4.6 mph 79.2% 0 in
10:19 73.2 °F 66 °F 30.1 in OSO 1.9 mph 5 mph 78.4% 0 in
10:24 73.6 °F 66.2 °F 30.1 in SO 1.4 mph 5 mph 77.7% 0 in
10:29 73.9 °F 66.4 °F 30.1 in SSE 1.6 mph 5.2 mph 77.6% 0 in
10:34 74.7 °F 66.4 °F 30.1 in ENE 2.4 mph 5.2 mph 75.7% 0 in
10:39 75 °F 66.4 °F 30.1 in NE 2.5 mph 5.8 mph 74.5% 0 in
10:44 75.4 °F 66.6 °F 30.1 in NE 2.9 mph 6 mph 74% 0 in
10:49 75.9 °F 66.6 °F 30.1 in NNE 2.7 mph 4.6 mph 72.8% 0 in
10:54 76.5 °F 66.4 °F 30.1 in NNO 2 mph 5 mph 71.1% 0 in
10:59 76.8 °F 66.2 °F 30.1 in NNE 2 mph 4.7 mph 70.1% 0 in
11:04 77.2 °F 66.2 °F 30.1 in NNE 2 mph 5 mph 68.9% 0 in
11:09 77.4 °F 66 °F 30.1 in NE 2.1 mph 5.8 mph 68.4% 0 in
11:14 77 °F 65.1 °F 30.1 in NNE 2.4 mph 6.2 mph 66.8% 0 in
11:19 76.8 °F 64.4 °F 30.1 in NNO 2.5 mph 6 mph 65.6% 0 in
11:24 77.2 °F 64.6 °F 30.1 in NNO 3.1 mph 6.2 mph 65.3% 0 in
11:29 77.4 °F 64.6 °F 30.1 in North 3 mph 6.9 mph 64.9% 0 in
11:34 77.4 °F 64.6 °F 30.1 in NE 2.9 mph 7 mph 64.9% 0 in
11:39 77.4 °F 64.8 °F 30.1 in North 3 mph 8.1 mph 65% 0 in
11:44 77.4 °F 64.8 °F 30.1 in NNE 3.6 mph 8.5 mph 65.2% 0 in
11:49 77.4 °F 64.8 °F 30.1 in NE 4 mph 9.2 mph 65.1% 0 in
11:54 77.4 °F 64.9 °F 30.1 in NNE 5.2 mph 10.4 mph 65.7% 0 in
11:59 77.4 °F 65.5 °F 30.1 in NNE 5.2 mph 10.4 mph 67.1% 0 in
12:04 77.4 °F 65.7 °F 30.1 in NE 5.2 mph 10 mph 67.5% 0 in
12:09 77.4 °F 65.1 °F 30.1 in NNE 5.5 mph 11.5 mph 66% 0 in
12:14 77.4 °F 65.3 °F 30.1 in NNE 6.2 mph 12 mph 66.7% 0 in
12:19 77.7 °F 65.5 °F 30.1 in NNE 6 mph 11.8 mph 66% 0 in
12:24 77.7 °F 65.1 °F 30.1 in NE 5.2 mph 12 mph 65.3% 0 in
12:29 78.1 °F 66 °F 30.1 in ENE 5.4 mph 10 mph 66.5% 0 in
12:34 78.3 °F 66.6 °F 30.1 in NNE 6.2 mph 12.5 mph 67.5% 0 in
12:39 78.3 °F 66.7 °F 30.1 in NE 6.2 mph 13 mph 68% 0 in
12:44 78.3 °F 66.9 °F 30.1 in NE 6.4 mph 13 mph 68.2% 0 in
12:49 78.4 °F 67.3 °F 30.1 in NE 6.3 mph 13 mph 68.3% 0 in
12:54 79 °F 67.1 °F 30.1 in NE 6.2 mph 12.7 mph 66.9% 0 in
12:59 79.2 °F 66.4 °F 30.1 in NE 6.5 mph 13 mph 65.4% 0 in
13:04 79.2 °F 66.4 °F 30.1 in NE 7.4 mph 13.8 mph 64.9% 0 in
13:09 79.2 °F 66 °F 30.1 in NE 7.5 mph 14 mph 64.4% 0 in
13:14 79.3 °F 65.8 °F 30.1 in NE 7.6 mph 14 mph 63.4% 0 in
13:19 79.3 °F 65.1 °F 30.1 in NE 7.6 mph 14 mph 62% 0 in
13:24 79.5 °F 65.7 °F 30.1 in ENE 7.4 mph 14 mph 62.7% 0 in
13:29 79.9 °F 65.1 °F 30.1 in ENE 7.3 mph 13 mph 61% 0 in
13:34 80.1 °F 65.7 °F 30.1 in ENE 6.9 mph 12 mph 61.5% 0 in
13:39 80.4 °F 65.5 °F 30.1 in NE 6.6 mph 10 mph 60.6% 0 in
13:44 80.4 °F 65.5 °F 30.1 in NE 5.9 mph 15 mph 60.7% 0 in
13:49 80.4 °F 65.7 °F 30.1 in NE 6.2 mph 15 mph 61% 0 in
13:54 80.4 °F 66.2 °F 30.1 in NE 6.9 mph 13.8 mph 62.1% 0 in
13:59 80.6 °F 66.2 °F 30.1 in ENE 6.8 mph 14 mph 61.6% 0 in
14:04 81 °F 65.7 °F 30.1 in ENE 6.4 mph 13 mph 60.1% 0 in
14:09 81.1 °F 65.8 °F 30.1 in NE 6.3 mph 12 mph 59.9% 0 in
14:14 81.1 °F 66 °F 30.1 in ENE 5.9 mph 12 mph 60.2% 0 in
14:19 81.1 °F 66.2 °F 30.1 in ENE 5.8 mph 12 mph 60.5% 0 in
14:24 81.5 °F 66.6 °F 30.1 in ENE 5.4 mph 11.4 mph 60.6% 0 in
14:29 81.3 °F 66.6 °F 30.1 in ENE 5.7 mph 12 mph 61% 0 in
14:34 81.5 °F 66.9 °F 30.1 in ENE 6.4 mph 12 mph 61.3% 0 in
14:39 81.9 °F 67.1 °F 30.1 in NE 6.3 mph 13.8 mph 60.9% 0 in
14:44 81.3 °F 66.6 °F 30.1 in ENE 6.2 mph 14 mph 61% 0 in
14:49 81.1 °F 66.6 °F 30.1 in NE 6.3 mph 13 mph 61.1% 0 in
14:54 81.3 °F 66.9 °F 30.1 in ENE 6.9 mph 14 mph 61.5% 0 in
14:59 81.5 °F 66.9 °F 30.1 in Este 6.9 mph 14 mph 61.2% 0 in
15:04 81.9 °F 66.6 °F 30.1 in NE 6.9 mph 12.7 mph 60.2% 0 in
15:09 81.9 °F 66.9 °F 30.1 in NE 7.1 mph 13.8 mph 60.8% 0 in
15:14 82 °F 66.9 °F 30.1 in NE 7.6 mph 14 mph 60.2% 0 in
15:19 81.9 °F 66.4 °F 30.1 in ENE 7.6 mph 15.9 mph 59.5% 0 in
15:24 81.9 °F 66.4 °F 30.1 in ENE 7.6 mph 16.1 mph 59.4% 0 in
15:29 82 °F 65.5 °F 30.1 in NE 7.6 mph 15 mph 57.4% 0 in
15:34 81.9 °F 65.3 °F 30.1 in NE 7.4 mph 15 mph 57.6% 0 in
15:39 81.7 °F 65.1 °F 30 in NE 7.6 mph 14 mph 57.1% 0 in
15:44 81.7 °F 64.8 °F 30 in ENE 8.1 mph 14 mph 56.6% 0 in
15:49 81.7 °F 65.5 °F 30 in NE 8.2 mph 15 mph 57.8% 0 in
15:54 81.7 °F 65.7 °F 30 in NE 8.5 mph 16.1 mph 58.6% 0 in
15:59 81.3 °F 65.3 °F 30 in ENE 8.3 mph 16 mph 58.1% 0 in
16:04 81.5 °F 65.3 °F 30 in NE 7.6 mph 13.7 mph 57.9% 0 in
16:09 81.3 °F 65.3 °F 30 in NE 7.6 mph 14 mph 58.5% 0 in
16:14 81.1 °F 65.7 °F 30 in NE 7.6 mph 17 mph 59.2% 0 in
16:19 81.1 °F 65.8 °F 30 in NE 7.8 mph 17.3 mph 60% 0 in
16:24 81.1 °F 65.3 °F 30 in NE 8.5 mph 17 mph 59% 0 in
16:29 81 °F 64.9 °F 30 in NE 8.5 mph 14 mph 58.4% 0 in
16:34 81 °F 65.5 °F 30 in NE 8.5 mph 14 mph 59.2% 0 in
16:39 81.1 °F 66.2 °F 30 in NE 8.5 mph 14 mph 60.5% 0 in
16:44 81.1 °F 65.8 °F 30 in ENE 8.5 mph 14 mph 60% 0 in
16:49 81.1 °F 66.2 °F 30 in NE 8.3 mph 16.3 mph 60.6% 0 in
16:54 81.1 °F 66.4 °F 30 in NE 7.6 mph 16.1 mph 60.8% 0 in
16:59 81.1 °F 66.6 °F 30 in NE 7.9 mph 16.1 mph 61.6% 0 in
17:04 80.8 °F 66.2 °F 30 in NE 8.7 mph 16 mph 61.4% 0 in
17:09 80.6 °F 65.5 °F 30 in NE 8.9 mph 14 mph 60% 0 in
17:14 80.6 °F 65.3 °F 30 in NE 9.7 mph 16.1 mph 59.7% 0 in
17:19 80.8 °F 65.7 °F 30 in NE 9.6 mph 16 mph 60% 0 in
17:24 80.8 °F 66 °F 30 in NE 9.2 mph 16.3 mph 61% 0 in
17:29 80.6 °F 66 °F 30 in NE 9.2 mph 16.1 mph 61.2% 0 in
17:34 80.4 °F 66 °F 30 in NE 9.2 mph 16.1 mph 61.6% 0 in
17:39 80.2 °F 66.6 °F 30 in NE 9.4 mph 16.1 mph 63.4% 0 in
17:44 80.1 °F 66.7 °F 30 in NE 10.2 mph 16 mph 64% 0 in
17:49 79.9 °F 66.7 °F 30 in NE 9.9 mph 17 mph 64% 0 in
17:54 79.7 °F 66.2 °F 30 in NE 9.2 mph 17 mph 63.3% 0 in
17:59 79.5 °F 66.4 °F 30 in NE 9.3 mph 16 mph 64% 0 in
18:04 79.5 °F 66.4 °F 30 in NE 9.7 mph 14 mph 64.1% 0 in
18:09 79.3 °F 66.2 °F 30 in NE 9.4 mph 15.2 mph 64.2% 0 in
18:14 79.3 °F 66.6 °F 30 in NE 8.5 mph 15 mph 65.1% 0 in
18:19 79.3 °F 66.7 °F 30 in NE 8.4 mph 16.1 mph 65.6% 0 in
18:24 79.2 °F 66.7 °F 30 in NE 8.1 mph 16 mph 66% 0 in
18:29 79.2 °F 66.9 °F 30 in NE 8.1 mph 14 mph 66.3% 0 in
18:34 79 °F 66.9 °F 30 in NE 8.1 mph 13.8 mph 66.8% 0 in
18:39 79 °F 67.1 °F 30 in NE 8 mph 14 mph 67% 0 in
18:44 78.6 °F 67.1 °F 30 in NE 7.4 mph 15 mph 67.7% 0 in
18:49 78.3 °F 67.3 °F 30 in NE 7.7 mph 15 mph 68.8% 0 in
18:54 78.3 °F 67.3 °F 30 in NE 8.7 mph 14 mph 69.3% 0 in
18:59 78.1 °F 67.5 °F 30 in NE 8 mph 10.7 mph 70% 0 in
19:04 78.1 °F 67.5 °F 30 in ENE 6.2 mph 11 mph 70.1% 0 in
19:09 78.1 °F 67.8 °F 30 in ENE 6 mph 10.4 mph 71% 0 in
19:14 77.9 °F 67.6 °F 30 in NE 5.2 mph 10 mph 71% 0 in
19:19 77.7 °F 67.6 °F 30 in ENE 5.1 mph 9.2 mph 71% 0 in
19:24 77.7 °F 67.6 °F 30 in NE 4.7 mph 9 mph 71.2% 0 in
19:29 77.5 °F 67.8 °F 30 in NE 4.6 mph 10 mph 72% 0 in
19:34 77.5 °F 67.6 °F 30 in NE 4.3 mph 10.4 mph 72% 0 in
19:39 77.4 °F 67.8 °F 30 in NE 4.5 mph 10.4 mph 72.7% 0 in
19:44 77.2 °F 67.8 °F 30 in ENE 5.2 mph 9 mph 73% 0 in
19:49 77 °F 67.8 °F 30 in ENE 4.9 mph 6.9 mph 73.2% 0 in
19:54 76.8 °F 68 °F 30 in NE 4 mph 7 mph 74% 0 in
19:59 76.6 °F 67.8 °F 30 in ENE 3.8 mph 6.2 mph 74% 0 in
20:04 76.5 °F 68 °F 30 in ENE 3.1 mph 6.4 mph 74.8% 0 in
20:09 76.5 °F 67.8 °F 30 in NE 3.2 mph 8.7 mph 75% 0 in
20:14 76.3 °F 68 °F 30 in ENE 3.6 mph 9.2 mph 75.7% 0 in
20:19 76.1 °F 68 °F 30 in ENE 3.7 mph 8.1 mph 76% 0 in
20:24 75.9 °F 67.8 °F 30 in ENE 4.3 mph 8.1 mph 76.2% 0 in
20:29 75.7 °F 68 °F 30 in NE 4.2 mph 8 mph 77% 0 in
20:34 75.6 °F 67.8 °F 30 in NE 3.6 mph 6.9 mph 77% 0 in
20:39 75.6 °F 67.8 °F 30 in NE 3.8 mph 9.7 mph 77.5% 0 in
20:44 75.2 °F 68 °F 30 in NE 4.3 mph 10 mph 78% 0 in
20:49 75 °F 67.8 °F 30 in NE 4.3 mph 7 mph 78.2% 0 in
20:54 74.8 °F 68 °F 30 in NE 4.3 mph 8.1 mph 79% 0 in
20:59 74.7 °F 68 °F 30 in NE 4.5 mph 8 mph 79.5% 0 in
21:04 74.7 °F 68.2 °F 30 in NE 5.2 mph 8.1 mph 80% 0 in
21:09 74.7 °F 68.2 °F 30 in NE 5.1 mph 8.1 mph 80.4% 0 in
21:14 74.5 °F 68.4 °F 30 in NE 4.7 mph 8.1 mph 81% 0 in
21:19 74.3 °F 68.2 °F 30 in ENE 4.6 mph 8 mph 81% 0 in
21:24 74.1 °F 68.4 °F 30 in ENE 4.3 mph 6.9 mph 81.9% 0 in
21:29 74.1 °F 68.4 °F 30 in NE 4.2 mph 7 mph 82% 0 in
21:34 73.9 °F 68.2 °F 30.1 in NE 3.6 mph 6.2 mph 82.4% 0 in
21:39 73.9 °F 68.4 °F 30.1 in ENE 3.7 mph 6.9 mph 83% 0 in
21:44 73.9 °F 68.4 °F 30.1 in ENE 4 mph 7 mph 83% 0 in
21:49 73.8 °F 68.4 °F 30.1 in NE 3.8 mph 7 mph 83% 0 in
21:54 73.8 °F 68.5 °F 30.1 in NE 3.1 mph 6.9 mph 83.9% 0 in
21:59 73.8 °F 68.5 °F 30.1 in NE 3.4 mph 7 mph 84% 0 in
22:04 73.8 °F 68.5 °F 30.1 in NE 4 mph 7 mph 84% 0 in
22:09 73.8 °F 68.5 °F 30.1 in NE 4 mph 6 mph 84% 0 in
22:14 73.6 °F 68.4 °F 30.1 in NE 4 mph 6 mph 84% 0 in
22:19 73.6 °F 68.4 °F 30.1 in NE 3.8 mph 5 mph 84% 0 in
22:24 73.4 °F 68.5 °F 30.1 in NE 3.1 mph 5.8 mph 84.9% 0 in
22:29 73.2 °F 68.4 °F 30.1 in NE 3.2 mph 6 mph 85% 0 in
22:34 73.2 °F 68.4 °F 30.1 in NE 3.6 mph 5.2 mph 85% 0 in
22:39 73.2 °F 68.5 °F 30.1 in NE 3.5 mph 5 mph 85.2% 0 in
22:44 73 °F 68.5 °F 30.1 in NE 3.1 mph 5 mph 86% 0 in
22:49 73 °F 68.5 °F 30.1 in NE 3.1 mph 5 mph 86% 0 in
22:54 73 °F 68.5 °F 30.1 in ENE 3.1 mph 5 mph 86% 0 in
22:59 73 °F 68.5 °F 30.1 in NE 3 mph 5.2 mph 86% 0 in
23:04 73 °F 68.5 °F 30.1 in NE 2.9 mph 5 mph 86% 0 in
23:09 73 °F 68.5 °F 30.1 in NE 2.8 mph 5 mph 86% 0 in
23:14 73.2 °F 68.7 °F 30.1 in Este 2.4 mph 4.6 mph 86% 0 in
23:19 73.2 °F 68.7 °F 30.1 in ESE 2.3 mph 5 mph 86% 0 in
23:24 73.2 °F 68.7 °F 30.1 in Este 2 mph 4.6 mph 86% 0 in
23:29 73.2 °F 68.7 °F 30.1 in Este 2 mph 5 mph 86% 0 in
23:34 73.2 °F 68.7 °F 30.1 in Este 2 mph 4 mph 86% 0 in
23:39 73.2 °F 68.7 °F 30.1 in ESE 1.9 mph 4 mph 86% 0 in
23:44 73.2 °F 68.7 °F 30.1 in Este 1.8 mph 3 mph 86% 0 in
23:49 73.2 °F 68.7 °F 30.1 in Este 1.7 mph 3.5 mph 86% 0 in
23:54 73 °F 68.7 °F 30.1 in Este 1.4 mph 3 mph 86% 0 in
23:59 73 °F 68.5 °F 30.1 in ESE 1 mph 2 mph 85.9% 0 in
Murcia-Puente Tocinos, España
Compliments of Weather Underground - 2.75 mb

La estación de MeteoMurcia.com, publica sus datos en los siguientes proyectos:

Weather Underground PWS IMURCIAP2 Meteoclimatic www.awekas.at

W3Counter
Web Analytics